Time;durP1;ratioP1;P1;durP2;ratioP2;P2;SDS_P1;SDS_P2;PMS_P1;PMS_P2;Temp;Humidity;BMP_temperature;BMP_pressure;BME280_temperature;BME280_humidity;BME280_pressure;Samples;Min_cycle;Max_cycle;Signal;HPM_P1;HPM_P2
2022/03/04 00:01:33;;;;;;;;;;;;;;;-0.05;79.33;101226.28;4992531;28;19988;-79
2022/03/04 00:03:59;;;;;;;;;;;;;;;-0.06;78.77;101222.75;4993889;28;19925;-78
2022/03/04 00:06:24;;;;;;;;;;;;;;;-0.08;78.57;101222.13;4981245;28;19925;-79
2022/03/04 00:08:50;;;;;;;;;;;;;;;-0.11;77.87;101227.91;4975315;28;20392;-78
2022/03/04 00:11:16;;;;;;;;;;;;;;;-0.12;78.41;101228.13;4992105;28;20451;-77
2022/03/04 00:13:41;;;;;;;;;;;;;;;-0.13;77.83;101232.69;4991990;28;19925;-78
2022/03/04 00:16:07;;;;;;;;;;;;;;;-0.12;78.10;101236.22;4992553;28;20024;-78
2022/03/04 00:18:32;;;;;;;;;;;;;;;-0.13;77.67;101237.25;4989010;28;20041;-78
2022/03/04 00:20:58;;;;;;;;;;;;;;;-0.15;77.74;101223.13;5002279;28;19926;-78
2022/03/04 00:23:23;;;;;;;;;;;;;;;-0.18;77.81;101237.81;5002002;28;19925;-78
2022/03/04 00:25:49;;;;;;;;;;;;;;;-0.18;78.27;101236.97;4991586;28;20028;-77
2022/03/04 00:28:14;;;;;;;;;;;;;;;-0.17;78.15;101231.41;4991457;28;20414;-78
2022/03/04 00:30:39;;;;;;;;;;;;;;;-0.14;77.67;101232.88;4992138;28;19925;-78
2022/03/04 00:33:05;;;;;;;;;;;;;;;-0.16;77.45;101245.72;4992857;28;19932;-79
2022/03/04 00:35:31;;;;;;;;;;;;;;;-0.17;77.27;101244.06;4975475;28;19969;-77
2022/03/04 00:37:56;;;;;;;;;;;;;;;-0.15;77.56;101244.69;5001941;28;20397;-78
2022/03/04 00:40:22;;;;;;;;;;;;;;;-0.13;77.65;101234.53;4996170;28;19960;-79
2022/03/04 00:42:47;;;;;;;;;;;;;;;-0.08;77.15;101243.69;4992067;28;19973;-78
2022/03/04 00:45:13;;;;;;;;;;;;;;;-0.11;76.80;101248.66;4991738;28;19934;-78
2022/03/04 00:47:38;;;;;;;;;;;;;;;-0.11;76.97;101241.41;4991982;28;19926;-78
2022/03/04 00:50:04;;;;;;;;;;;;;;;-0.13;76.21;101248.88;4992306;28;20380;-78
2022/03/04 00:52:30;;;;;;;;;;;;;;;-0.16;76.87;101246.56;4991840;28;20499;-78
2022/03/04 00:54:56;;;;;;;;;;;;;;;-0.15;76.11;101250.09;4992049;28;20563;-78
2022/03/04 00:57:21;;;;;;;;;;;;;;;-0.20;75.80;101245.25;4991983;28;19949;-78
2022/03/04 00:59:47;;;;;;;;;;;;;;;-0.21;75.34;101248.16;4991920;28;19929;-79
2022/03/04 01:02:12;;;;;;;;;;;;;;;-0.23;75.68;101242.13;4991703;28;19929;-79
2022/03/04 01:04:38;;;;;;;;;;;;;;;-0.19;75.83;101244.22;4991108;28;19926;-78
2022/03/04 01:07:03;;;;;;;;;;;;;;;-0.15;75.81;101247.41;4991620;28;19949;-78
2022/03/04 01:09:29;;;;;;;;;;;;;;;-0.19;75.60;101246.94;4991330;28;20419;-78
2022/03/04 01:11:54;;;;;;;;;;;;;;;-0.25;75.42;101257.69;4991478;28;20477;-78
2022/03/04 01:14:20;;;;;;;;;;;;;;;-0.27;75.10;101248.94;4991686;28;19933;-78
2022/03/04 01:16:45;;;;;;;;;;;;;;;-0.26;76.00;101251.44;4991111;28;19932;-78
2022/03/04 01:19:11;;;;;;;;;;;;;;;-0.20;75.71;101244.44;4991096;28;19937;-78
2022/03/04 01:21:38;;;;;;;;;;;;;;;-0.23;75.44;101248.34;4991613;28;19925;-77
2022/03/04 01:24:03;;;;;;;;;;;;;;;-0.28;74.65;101252.69;4991721;28;19937;-77
2022/03/04 01:26:29;;;;;;;;;;;;;;;-0.30;75.10;101250.19;4991558;28;19925;-77
2022/03/04 01:28:55;;;;;;;;;;;;;;;-0.27;75.11;101257.03;4991912;28;20044;-77
2022/03/04 01:31:21;;;;;;;;;;;;;;;-0.31;75.15;101253.91;4991656;28;20009;-77
2022/03/04 01:33:46;;;;;;;;;;;;;;;-0.34;74.82;101251.59;4990930;28;19932;-77
2022/03/04 01:36:12;;;;;;;;;;;;;;;-0.33;74.84;101251.41;4991535;28;19930;-77
2022/03/04 01:38:37;;;;;;;;;;;;;;;-0.32;74.94;101254.94;4991202;28;19925;-77
2022/03/04 01:41:03;;;;;;;;;;;;;;;-0.32;75.02;101258.47;4993162;28;19934;-79
2022/03/04 01:43:29;;;;;;;;;;;;;;;-0.34;74.03;101260.53;4995198;28;20020;-77
2022/03/04 01:45:55;;;;;;;;;;;;;;;-0.33;74.49;101261.34;4995858;28;19925;-79
2022/03/04 01:48:20;;;;;;;;;;;;;;;-0.33;74.00;101254.09;4994613;28;19929;-79
2022/03/04 01:50:49;;;;;;;;;;;;;;;-0.31;73.79;101262.81;4995115;28;20442;-78
2022/03/04 01:53:15;;;;;;;;;;;;;;;-0.33;73.37;101256.81;4994292;28;19948;-79
2022/03/04 01:55:41;;;;;;;;;;;;;;;-0.32;73.62;101261.16;4995430;28;20354;-79
2022/03/04 01:58:06;;;;;;;;;;;;;;;-0.31;74.11;101260.13;4995711;28;19929;-79
2022/03/04 02:00:31;;;;;;;;;;;;;;;-0.26;74.11;101264.09;4993925;28;19954;-78
2022/03/04 02:02:59;;;;;;;;;;;;;;;-0.27;73.87;101260.56;4995050;28;19953;-78
2022/03/04 02:05:24;;;;;;;;;;;;;;;-0.25;73.42;101260.38;4994754;28;20012;-78
2022/03/04 02:07:50;;;;;;;;;;;;;;;-0.28;72.51;101269.69;4994886;28;20048;-78
2022/03/04 02:10:15;;;;;;;;;;;;;;;-0.36;72.94;101265.25;4994931;28;19926;-78
2022/03/04 02:12:41;;;;;;;;;;;;;;;-0.36;73.02;101265.25;4990723;28;19969;-78
2022/03/04 02:15:07;;;;;;;;;;;;;;;-0.34;72.74;101259.69;4994787;28;20020;-78
2022/03/04 02:17:32;;;;;;;;;;;;;;;-0.32;73.40;101269.25;4994514;28;19932;-78
2022/03/04 02:19:58;;;;;;;;;;;;;;;-0.36;72.19;101262.56;4995276;28;20097;-78
2022/03/04 02:22:24;;;;;;;;;;;;;;;-0.37;72.55;101266.28;4987491;28;19930;-78
2022/03/04 02:24:49;;;;;;;;;;;;;;;-0.35;71.88;101275.03;4991964;28;19972;-78
2022/03/04 02:27:15;;;;;;;;;;;;;;;-0.34;71.80;101275.88;4989801;28;19941;-78
2022/03/04 02:29:41;;;;;;;;;;;;;;;-0.31;72.15;101260.13;4992118;28;20025;-78
2022/03/04 02:32:06;;;;;;;;;;;;;;;-0.34;71.55;101263.22;4973213;28;20084;-78
2022/03/04 02:34:32;;;;;;;;;;;;;;;-0.34;72.22;101265.91;4983287;28;20013;-78
2022/03/04 02:36:57;;;;;;;;;;;;;;;-0.34;71.59;101268.63;5004839;28;19925;-78
2022/03/04 02:39:23;;;;;;;;;;;;;;;-0.31;72.29;101272.78;4999194;28;19930;-78
2022/03/04 02:41:48;;;;;;;;;;;;;;;-0.29;71.62;101267.19;4990228;28;19925;-78
2022/03/04 02:44:14;;;;;;;;;;;;;;;-0.34;71.62;101268.63;4991770;28;19980;-77
2022/03/04 02:46:40;;;;;;;;;;;;;;;-0.33;72.41;101274.84;4984225;28;19961;-78
2022/03/04 02:49:06;;;;;;;;;;;;;;;-0.37;72.07;101271.69;5008112;28;19976;-78
2022/03/04 02:51:32;;;;;;;;;;;;;;;-0.38;72.32;101270.00;4994045;28;19925;-79
2022/03/04 02:53:57;;;;;;;;;;;;;;;-0.39;72.52;101268.34;4986265;28;19944;-79
2022/03/04 02:56:23;;;;;;;;;;;;;;;-0.40;72.59;101271.22;4994169;28;19992;-79
2022/03/04 02:58:49;;;;;;;;;;;;;;;-0.39;72.70;101273.72;4993977;28;19980;-77
2022/03/04 03:01:14;;;;;;;;;;;;;;;-0.38;72.03;101274.56;4994093;28;19926;-77
2022/03/04 03:03:40;;;;;;;;;;;;;;;-0.38;72.41;101280.78;4993971;28;19930;-77
2022/03/04 03:06:06;;;;;;;;;;;;;;;-0.40;72.22;101277.47;4992955;28;19932;-77
2022/03/04 03:08:31;;;;;;;;;;;;;;;-0.44;71.99;101272.66;4993299;28;19926;-78
2022/03/04 03:10:57;;;;;;;;;;;;;;;-0.46;71.88;101275.53;4992181;28;19932;-78
2022/03/04 03:13:22;;;;;;;;;;;;;;;-0.43;72.46;101293.19;4993621;28;19982;-78
2022/03/04 03:15:48;;;;;;;;;;;;;;;-0.42;72.08;101281.38;4993293;28;19981;-78
2022/03/04 03:18:14;;;;;;;;;;;;;;;-0.45;72.15;101284.47;4993181;28;19930;-78
2022/03/04 03:20:39;;;;;;;;;;;;;;;-0.49;71.89;101281.34;4992928;28;19933;-78
2022/03/04 03:23:05;;;;;;;;;;;;;;;-0.53;71.98;101288.09;4993894;28;19932;-78
2022/03/04 03:25:30;;;;;;;;;;;;;;;-0.56;71.88;101287.66;4993580;28;19926;-78
2022/03/04 03:27:56;;;;;;;;;;;;;;;-0.54;72.36;101294.53;4993591;28;19964;-79
2022/03/04 03:30:21;;;;;;;;;;;;;;;-0.54;72.20;101297.22;4993433;28;19964;-78
2022/03/04 03:32:47;;;;;;;;;;;;;;;-0.52;72.00;101300.59;4992809;28;19973;-78
2022/03/04 03:35:12;;;;;;;;;;;;;;;-0.57;71.64;101303.00;4993519;28;20461;-78
2022/03/04 03:37:38;;;;;;;;;;;;;;;-0.60;71.58;101300.69;4992124;28;20399;-78
2022/03/04 03:40:04;;;;;;;;;;;;;;;-0.56;71.54;101314.63;4993380;28;20408;-78
2022/03/04 03:42:30;;;;;;;;;;;;;;;-0.56;71.49;101309.22;4991505;28;19976;-79
2022/03/04 03:44:55;;;;;;;;;;;;;;;-0.57;70.93;101319.19;4992691;28;19925;-79
2022/03/04 03:47:21;;;;;;;;;;;;;;;-0.59;71.18;101321.25;5006295;28;19980;-79
2022/03/04 03:49:46;;;;;;;;;;;;;;;-0.60;71.10;101327.66;4991623;28;19929;-79
2022/03/04 03:52:12;;;;;;;;;;;;;;;-0.61;71.39;101331.38;4994518;28;19926;-78
2022/03/04 03:54:37;;;;;;;;;;;;;;;-0.56;71.15;101330.78;4984175;28;20316;-77
2022/03/04 03:57:21;;;;;;;;;;;;;;;-0.57;71.20;101329.97;4992043;28;19987;-77
2022/03/04 03:59:48;;;;;;;;;;;;;;;-0.56;71.08;101342.41;4989428;28;19972;-79
2022/03/04 04:02:14;;;;;;;;;;;;;;;-0.61;70.65;101332.22;4991699;28;19930;-78
2022/03/04 04:04:41;;;;;;;;;;;;;;;-0.66;70.29;101337.34;4990912;28;19975;-78
2022/03/04 04:07:10;;;;;;;;;;;;;;;-0.63;71.03;101338.81;4990897;28;19926;-79
2022/03/04 04:09:36;;;;;;;;;;;;;;;-0.62;70.40;101335.94;4987897;28;19930;-79
2022/03/04 04:12:02;;;;;;;;;;;;;;;-0.61;70.04;101337.59;4992377;28;19926;-79
2022/03/04 04:14:27;;;;;;;;;;;;;;;-0.62;70.66;101338.63;4991288;28;20033;-78
2022/03/04 04:16:53;;;;;;;;;;;;;;;-0.69;69.95;101340.44;4992943;28;20385;-79
2022/03/04 04:19:19;;;;;;;;;;;;;;;-0.69;69.82;101350.38;4992147;28;19926;-77
2022/03/04 04:21:44;;;;;;;;;;;;;;;-0.71;70.51;101344.31;4984741;28;19925;-77
2022/03/04 04:24:10;;;;;;;;;;;;;;;-0.69;70.24;101347.69;4991213;28;19926;-79
2022/03/04 04:26:35;;;;;;;;;;;;;;;-0.68;70.18;101342.09;5008391;28;19984;-79
2022/03/04 04:29:01;;;;;;;;;;;;;;;-0.67;70.19;101345.63;4998605;28;19961;-79
2022/03/04 04:31:27;;;;;;;;;;;;;;;-0.70;70.02;101343.28;4990216;28;20360;-80
2022/03/04 04:33:53;;;;;;;;;;;;;;;-0.74;70.73;101342.84;5004280;28;19929;-78
2022/03/04 04:36:18;;;;;;;;;;;;;;;-0.75;70.22;101351.94;4990447;28;19922;-79
2022/03/04 04:38:44;;;;;;;;;;;;;;;-0.76;70.24;101352.13;4979359;28;19929;-78
2022/03/04 04:41:10;;;;;;;;;;;;;;;-0.80;70.50;101351.69;4992128;28;19925;-76
2022/03/04 04:43:36;;;;;;;;;;;;;;;-0.78;70.99;101352.34;4991531;28;20012;-77
2022/03/04 04:46:02;;;;;;;;;;;;;;;-0.76;70.74;101354.84;4986371;28;19929;-80
2022/03/04 04:48:28;;;;;;;;;;;;;;;-0.79;70.32;101349.81;5004334;28;20319;-78
2022/03/04 04:50:53;;;;;;;;;;;;;;;-0.77;70.58;101356.69;4991603;28;19930;-79
2022/03/04 04:53:19;;;;;;;;;;;;;;;-0.77;70.96;101359.38;4992442;28;19929;-79
2022/03/04 04:55:44;;;;;;;;;;;;;;;-0.79;70.58;101368.69;4975128;28;19933;-80
2022/03/04 04:58:10;;;;;;;;;;;;;;;-0.86;70.60;101367.78;4992683;28;19925;-79
2022/03/04 05:00:36;;;;;;;;;;;;;;;-0.90;70.44;101361.91;4991508;28;20418;-80
2022/03/04 05:03:01;;;;;;;;;;;;;;;-0.91;70.99;101361.09;4992055;28;20367;-79
2022/03/04 05:05:27;;;;;;;;;;;;;;;-0.88;70.52;101369.81;4992203;28;20011;-79
2022/03/04 05:07:52;;;;;;;;;;;;;;;-0.92;70.44;101364.81;4991892;28;19926;-79
2022/03/04 05:10:18;;;;;;;;;;;;;;;-0.88;70.76;101370.63;4992071;28;19925;-78
2022/03/04 05:12:43;;;;;;;;;;;;;;;-0.86;71.12;101373.19;4991898;28;20320;-79
2022/03/04 05:15:14;;;;;;;;;;;;;;;-0.81;70.84;101381.53;4990904;28;20444;-79
2022/03/04 05:17:40;;;;;;;;;;;;;;;-0.78;70.65;101381.13;4991608;28;19925;-79
2022/03/04 05:20:06;;;;;;;;;;;;;;;-0.77;70.99;101380.13;4990437;28;19936;-79
2022/03/04 05:22:32;;;;;;;;;;;;;;;-0.77;70.72;101377.41;4991765;28;19932;-79
2022/03/04 05:24:57;;;;;;;;;;;;;;;-0.77;70.21;101372.84;4974677;28;19973;-79
2022/03/04 05:27:23;;;;;;;;;;;;;;;-0.82;70.24;101377.16;4991917;28;19973;-80
2022/03/04 05:29:48;;;;;;;;;;;;;;;-0.87;70.64;101383.09;4991809;28;19925;-79
2022/03/04 05:32:14;;;;;;;;;;;;;;;-0.92;70.43;101380.97;4984585;28;19930;-79
2022/03/04 05:34:41;;;;;;;;;;;;;;;-0.91;70.16;101381.78;4991253;28;19959;-79
2022/03/04 05:37:07;;;;;;;;;;;;;;;-0.91;70.10;101388.03;4990348;28;20060;-79
2022/03/04 05:39:32;;;;;;;;;;;;;;;-0.89;70.48;101390.53;4991570;28;20014;-78
2022/03/04 05:41:58;;;;;;;;;;;;;;;-0.87;70.31;101396.56;4990773;28;20293;-79
2022/03/04 05:44:23;;;;;;;;;;;;;;;-0.82;70.50;101399.53;4990305;28;19932;-79
2022/03/04 05:46:49;;;;;;;;;;;;;;;-0.79;70.40;101395.63;4991422;28;19926;-78
2022/03/04 05:49:14;;;;;;;;;;;;;;;-0.77;70.72;101399.81;4990756;28;19949;-79
2022/03/04 05:51:40;;;;;;;;;;;;;;;-0.76;70.05;101400.63;4990463;28;20488;-79
2022/03/04 05:54:06;;;;;;;;;;;;;;;-0.74;70.81;101403.97;4991286;28;19980;-79
2022/03/04 05:56:31;;;;;;;;;;;;;;;-0.70;70.24;101410.66;4990843;28;19929;-79
2022/03/04 05:58:56;;;;;;;;;;;;;;;-0.67;70.46;101415.69;4990375;28;19932;-79
2022/03/04 06:01:22;;;;;;;;;;;;;;;-0.64;69.89;101420.72;4990438;28;19926;-80
2022/03/04 06:03:48;;;;;;;;;;;;;;;-0.61;69.77;101409.53;4990693;28;19976;-79
2022/03/04 06:06:13;;;;;;;;;;;;;;;-0.61;69.88;101420.31;4991705;28;19930;-80
2022/03/04 06:08:39;;;;;;;;;;;;;;;-0.64;69.61;101421.53;4991643;28;19926;-79
2022/03/04 06:11:11;;;;;;;;;;;;;;;-0.60;70.01;101424.69;4990395;28;19972;-79
2022/03/04 06:13:37;;;;;;;;;;;;;;;-0.59;69.20;101428.22;4991785;28;20020;-79
2022/03/04 06:16:03;;;;;;;;;;;;;;;-0.58;69.40;101429.88;4991426;28;20032;-79
2022/03/04 06:18:28;;;;;;;;;;;;;;;-0.59;69.38;101436.31;4991902;28;19925;-78
2022/03/04 06:20:54;;;;;;;;;;;;;;;-0.63;68.90;101425.06;4976173;28;19930;-79
2022/03/04 06:23:19;;;;;;;;;;;;;;;-0.68;69.26;101424.81;4990401;28;19960;-79
2022/03/04 06:25:45;;;;;;;;;;;;;;;-0.66;69.79;101433.53;4974279;28;19929;-80
2022/03/04 06:28:11;;;;;;;;;;;;;;;-0.65;69.68;101436.03;4993808;28;19926;-79
2022/03/04 06:30:36;;;;;;;;;;;;;;;-0.61;69.22;101436.50;4995284;28;20393;-79
2022/03/04 06:35:46;;;;;;;;;;;;;;;-0.55;69.50;101445.69;4988255;28;19926;-78
2022/03/04 06:38:12;;;;;;;;;;;;;;;-0.55;68.92;101440.28;4975523;28;19981;-78
2022/03/04 06:40:38;;;;;;;;;;;;;;;-0.57;68.92;101439.66;5005292;28;20028;-78
2022/03/04 06:43:07;;;;;;;;;;;;;;;-0.55;69.50;101437.59;5009798;28;20012;-80
2022/03/04 06:45:32;;;;;;;;;;;;;;;-0.52;68.79;101442.59;5009309;28;19922;-79
2022/03/04 06:47:58;;;;;;;;;;;;;;;-0.53;69.20;101447.16;4994406;28;19932;-80
2022/03/04 06:50:23;;;;;;;;;;;;;;;-0.49;69.67;101448.47;5019699;28;19976;-78
2022/03/04 06:52:50;;;;;;;;;;;;;;;-0.53;69.07;101451.72;4993206;28;19926;-78
2022/03/04 06:55:16;;;;;;;;;;;;;;;-0.52;68.86;101451.56;5010287;28;19926;-78
2022/03/04 06:57:41;;;;;;;;;;;;;;;-0.54;68.84;101448.19;5007894;28;20034;-77
2022/03/04 07:00:07;;;;;;;;;;;;;;;-0.52;68.85;101450.69;5014078;28;19925;-78
2022/03/04 07:02:35;;;;;;;;;;;;;;;-0.48;69.17;101458.22;5029634;28;19925;-78
2022/03/04 07:05:02;;;;;;;;;;;;;;;-0.46;68.78;101461.56;5014110;28;19921;-78
2022/03/04 07:07:27;;;;;;;;;;;;;;;-0.46;68.74;101464.25;5014029;28;20064;-78
2022/03/04 07:09:53;;;;;;;;;;;;;;;-0.43;68.67;101466.59;5029404;28;20020;-76
2022/03/04 07:12:18;;;;;;;;;;;;;;;-0.45;69.23;101468.63;5013942;28;20011;-77
2022/03/04 07:14:43;;;;;;;;;;;;;;;-0.46;68.77;101472.34;5014003;28;19968;-78
2022/03/04 07:17:09;;;;;;;;;;;;;;;-0.54;68.58;101469.75;5004738;28;19922;-77
2022/03/04 07:19:34;;;;;;;;;;;;;;;-0.54;69.46;101477.84;4994397;28;20443;-78
2022/03/04 07:22:00;;;;;;;;;;;;;;;-0.55;69.00;101473.47;4994694;28;19930;-78
2022/03/04 07:24:25;;;;;;;;;;;;;;;-0.60;68.64;101475.91;4994271;28;19930;-78
2022/03/04 07:26:51;;;;;;;;;;;;;;;-0.65;69.09;101470.25;4994259;28;19926;-78
2022/03/04 07:29:16;;;;;;;;;;;;;;;-0.66;68.89;101484.75;4994283;28;19932;-78
2022/03/04 07:31:42;;;;;;;;;;;;;;;-0.71;69.13;101484.44;4984562;28;19932;-78
2022/03/04 07:34:08;;;;;;;;;;;;;;;-0.78;68.92;101486.22;4974301;28;19926;-77
2022/03/04 07:36:33;;;;;;;;;;;;;;;-0.80;68.06;101485.59;4985966;28;19926;-79
2022/03/04 07:38:59;;;;;;;;;;;;;;;-0.86;68.08;101502.50;4993504;28;19951;-78
2022/03/04 07:41:25;;;;;;;;;;;;;;;-0.92;68.24;101494.13;4992710;28;19932;-78
2022/03/04 07:43:50;;;;;;;;;;;;;;;-0.99;67.53;101497.75;4993798;28;19933;-77
2022/03/04 07:46:17;;;;;;;;;;;;;;;-1.01;67.91;101508.72;4992482;28;19925;-77
2022/03/04 07:48:43;;;;;;;;;;;;;;;-1.03;67.82;101504.53;4994082;28;19926;-77
2022/03/04 07:51:08;;;;;;;;;;;;;;;-0.98;67.83;101505.63;4993714;28;20403;-78
2022/03/04 07:53:34;;;;;;;;;;;;;;;-0.89;68.04;101506.38;4994232;28;19980;-78
2022/03/04 07:55:59;;;;;;;;;;;;;;;-0.83;67.30;101519.13;4993212;28;19930;-77
2022/03/04 07:58:25;;;;;;;;;;;;;;;-0.79;67.32;101519.59;4993430;28;19933;-78
2022/03/04 08:00:50;;;;;;;;;;;;;;;-0.81;66.57;101510.84;4991972;28;19947;-78
2022/03/04 08:03:15;;;;;;;;;;;;;;;-0.95;67.11;101526.81;4993646;28;20016;-78
2022/03/04 08:05:41;;;;;;;;;;;;;;;-0.92;66.91;101518.34;4980726;28;19922;-78
2022/03/04 08:08:06;;;;;;;;;;;;;;;-0.80;66.66;101517.91;4973550;28;19933;-78
2022/03/04 08:10:32;;;;;;;;;;;;;;;-0.85;66.61;101529.25;4973714;28;20452;-78
2022/03/04 08:12:57;;;;;;;;;;;;;;;-0.87;66.60;101527.75;4973614;28;20329;-78
2022/03/04 08:15:23;;;;;;;;;;;;;;;-0.88;66.75;101536.84;4973748;28;20024;-78
2022/03/04 08:17:49;;;;;;;;;;;;;;;-0.88;66.72;101535.00;4973828;28;20060;-77
2022/03/04 08:20:15;;;;;;;;;;;;;;;-0.83;66.52;101539.84;4976529;28;19930;-77
2022/03/04 08:22:41;;;;;;;;;;;;;;;-0.74;66.79;101542.25;4973659;28;19934;-78
2022/03/04 08:25:07;;;;;;;;;;;;;;;-0.63;66.66;101540.97;4988754;28;19969;-77
2022/03/04 08:27:36;;;;;;;;;;;;;;;-0.54;66.81;101547.94;4973637;28;19933;-77
2022/03/04 08:30:02;;;;;;;;;;;;;;;-0.49;66.29;101544.69;4972112;28;20088;-77
2022/03/04 08:32:28;;;;;;;;;;;;;;;-0.45;66.15;101540.59;4973446;28;20408;-78
2022/03/04 08:34:53;;;;;;;;;;;;;;;-0.40;65.89;101547.09;4973261;28;20012;-77
2022/03/04 08:37:18;;;;;;;;;;;;;;;-0.42;65.61;101554.53;4956278;28;19961;-78
2022/03/04 08:39:44;;;;;;;;;;;;;;;-0.43;65.55;101552.03;4976339;28;19936;-78
2022/03/04 08:42:10;;;;;;;;;;;;;;;-0.49;66.05;101559.00;4973371;28;19926;-77
2022/03/04 08:44:35;;;;;;;;;;;;;;;-0.41;65.46;101552.66;4973236;28;19964;-78
2022/03/04 08:47:01;;;;;;;;;;;;;;;-0.51;64.74;101562.91;4973127;28;19926;-78
2022/03/04 08:49:26;;;;;;;;;;;;;;;-0.56;65.66;101566.16;4972716;28;19922;-77
2022/03/04 08:51:52;;;;;;;;;;;;;;;-0.58;65.35;101565.50;4973113;28;19934;-78
2022/03/04 08:54:17;;;;;;;;;;;;;;;-0.61;65.05;101561.31;4972938;28;20296;-78
2022/03/04 08:56:42;;;;;;;;;;;;;;;-0.51;65.26;101563.75;4973071;28;19922;-79
2022/03/04 08:59:08;;;;;;;;;;;;;;;-0.39;65.08;101558.72;4972853;28;19932;-78
2022/03/04 09:01:33;;;;;;;;;;;;;;;-0.34;65.34;101567.94;4971880;28;20020;-76
2022/03/04 09:03:59;;;;;;;;;;;;;;;-0.26;64.88;101558.06;4971550;28;19980;-78
2022/03/04 09:06:24;;;;;;;;;;;;;;;-0.22;64.59;101564.75;4973261;28;20029;-77
2022/03/04 09:08:50;;;;;;;;;;;;;;;-0.25;63.93;101559.72;4972877;28;19926;-77
2022/03/04 09:11:15;;;;;;;;;;;;;;;-0.47;63.98;101562.34;4972701;28;19926;-77
2022/03/04 09:13:41;;;;;;;;;;;;;;;-0.52;64.01;101556.69;4972940;28;20425;-78
2022/03/04 09:16:06;;;;;;;;;;;;;;;-0.45;64.19;101567.56;4972722;28;19995;-79
2022/03/04 09:18:33;;;;;;;;;;;;;;;-0.35;64.03;101568.97;4975686;28;19926;-78
2022/03/04 09:20:59;;;;;;;;;;;;;;;-0.25;63.64;101570.50;4987282;28;19980;-78
2022/03/04 09:23:24;;;;;;;;;;;;;;;-0.17;64.22;101567.72;4974441;28;19930;-77
2022/03/04 09:25:51;;;;;;;;;;;;;;;-0.11;63.35;101569.66;4973602;28;19994;-77
2022/03/04 09:28:16;;;;;;;;;;;;;;;-0.09;63.36;101576.53;4975787;28;19933;-78
2022/03/04 09:30:41;;;;;;;;;;;;;;;-0.20;62.25;101579.72;4972997;28;19926;-78
2022/03/04 09:33:07;;;;;;;;;;;;;;;-0.23;62.92;101579.25;4972526;28;19933;-78
2022/03/04 09:35:33;;;;;;;;;;;;;;;-0.23;62.64;101585.47;4972932;28;19949;-79
2022/03/04 09:37:58;;;;;;;;;;;;;;;-0.16;63.37;101586.44;4991206;28;19930;-78
2022/03/04 09:40:24;;;;;;;;;;;;;;;-0.05;63.10;101587.78;4983965;28;19930;-78
2022/03/04 09:42:49;;;;;;;;;;;;;;;-0.04;63.32;101590.28;4990792;28;19926;-78
2022/03/04 09:45:15;;;;;;;;;;;;;;;0.02;62.20;101591.44;4989181;28;19930;-78
2022/03/04 09:47:40;;;;;;;;;;;;;;;-0.01;62.16;101589.06;4972534;28;19930;-78
2022/03/04 09:50:06;;;;;;;;;;;;;;;0.04;62.63;101593.94;4971376;28;19972;-78
2022/03/04 09:52:32;;;;;;;;;;;;;;;0.04;62.80;101586.69;4972664;28;19926;-78
2022/03/04 09:54:57;;;;;;;;;;;;;;;0.16;62.44;101585.13;4987217;28;19926;-78
2022/03/04 09:57:24;;;;;;;;;;;;;;;0.25;62.38;101586.72;4990397;28;19925;-78
2022/03/04 09:59:49;;;;;;;;;;;;;;;0.29;61.71;101587.16;4991958;28;20349;-78
2022/03/04 10:02:15;;;;;;;;;;;;;;;0.32;61.47;101588.66;4993475;28;19984;-78
2022/03/04 10:04:40;;;;;;;;;;;;;;;0.42;61.62;101583.78;4994614;28;19933;-78
2022/03/04 10:07:13;;;;;;;;;;;;;;;0.53;60.89;101580.59;4979405;28;19926;-78
2022/03/04 10:09:44;;;;;;;;;;;;;;;0.55;60.55;101575.81;4976270;28;20034;-77
2022/03/04 10:12:11;;;;;;;;;;;;;;;0.61;59.92;101585.84;4975742;28;19922;-78
2022/03/04 10:14:54;;;;;;;;;;;;;;;0.61;59.77;101583.16;4974860;28;19948;-79
2022/03/04 10:17:20;;;;;;;;;;;;;;;0.57;59.81;101576.47;4976037;28;19922;-78
2022/03/04 10:19:50;;;;;;;;;;;;;;;0.67;59.54;101581.53;4974812;28;20313;-77
2022/03/04 10:22:16;;;;;;;;;;;;;;;0.56;58.59;101580.19;4975792;28;19941;-78
2022/03/04 10:24:42;;;;;;;;;;;;;;;0.55;58.90;101573.13;4976204;28;19926;-79
2022/03/04 10:27:08;;;;;;;;;;;;;;;0.47;58.36;101571.38;4974896;28;19926;-79
2022/03/04 10:29:34;;;;;;;;;;;;;;;0.44;58.37;101576.31;4974667;28;19933;-77
2022/03/04 10:32:10;;;;;;;;;;;;;;;0.35;58.44;101588.25;4977872;28;19926;-78
2022/03/04 10:34:48;;;;;;;;;;;;;;;0.43;59.08;101582.75;5010451;28;19925;-78
2022/03/04 10:37:14;;;;;;;;;;;;;;;0.52;58.75;101584.28;4995222;28;20024;-78
2022/03/04 10:39:56;;;;;;;;;;;;;;;0.62;58.00;101583.97;4995175;28;19949;-77
2022/03/04 10:42:37;;;;;;;;;;;;;;;0.63;57.45;101585.66;4993974;28;19964;-78
2022/03/04 10:45:08;;;;;;;;;;;;;;;0.48;56.09;101586.53;4994831;28;20443;-78
2022/03/04 10:47:44;;;;;;;;;;;;;;;0.40;56.43;101589.38;4995105;28;19984;-77
2022/03/04 10:50:11;;;;;;;;;;;;;;;0.45;56.33;101596.91;4994631;28;19933;-77
2022/03/04 10:52:47;;;;;;;;;;;;;;;0.55;56.33;101590.16;5009994;28;20016;-77
2022/03/04 10:55:12;;;;;;;;;;;;;;;0.70;56.26;101591.97;4994423;28;20315;-78
2022/03/04 10:57:41;;;;;;;;;;;;;;;0.83;55.92;101587.50;4989075;28;19922;-77
2022/03/04 11:00:07;;;;;;;;;;;;;;;0.91;55.47;101583.84;4975130;28;19996;-78
2022/03/04 11:02:45;;;;;;;;;;;;;;;0.98;54.69;101575.78;4975286;28;19968;-78
2022/03/04 11:05:11;;;;;;;;;;;;;;;1.00;54.51;101576.44;4977339;28;19929;-78
2022/03/04 11:07:37;;;;;;;;;;;;;;;0.86;54.41;101578.19;4977402;28;19926;-78
2022/03/04 11:10:03;;;;;;;;;;;;;;;0.75;53.63;101582.25;4989915;28;19942;-78
2022/03/04 11:12:28;;;;;;;;;;;;;;;0.59;54.44;101580.66;4974403;28;20032;-78
2022/03/04 11:14:53;;;;;;;;;;;;;;;0.54;55.48;101580.41;4975241;28;20385;-77
2022/03/04 11:17:19;;;;;;;;;;;;;;;0.48;55.36;101575.75;4993122;28;19965;-78
2022/03/04 11:19:45;;;;;;;;;;;;;;;0.36;56.00;101584.56;4977479;28;19984;-77
2022/03/04 11:22:11;;;;;;;;;;;;;;;0.33;56.71;101584.91;4993058;28;19980;-79
2022/03/04 11:24:39;;;;;;;;;;;;;;;0.35;56.88;101582.84;4975032;28;19926;-77
2022/03/04 11:27:05;;;;;;;;;;;;;;;0.26;56.78;101588.38;4974720;28;20419;-78
2022/03/04 11:29:36;;;;;;;;;;;;;;;0.19;56.25;101584.78;4996641;28;19926;-78
2022/03/04 11:32:06;;;;;;;;;;;;;;;0.19;55.60;101576.69;4989845;28;19925;-78
2022/03/04 11:34:47;;;;;;;;;;;;;;;0.12;55.03;101577.63;4976784;28;19926;-79
2022/03/04 11:37:16;;;;;;;;;;;;;;;0.01;54.73;101581.66;4993393;28;19976;-79
2022/03/04 11:40:01;;;;;;;;;;;;;;;0.01;54.76;101572.72;4990054;28;19936;-79
2022/03/04 11:42:27;;;;;;;;;;;;;;;0.01;54.39;101567.34;4991622;28;19932;-77
2022/03/04 11:44:54;;;;;;;;;;;;;;;0.00;54.45;101566.50;4991121;28;19922;-76
2022/03/04 11:47:20;;;;;;;;;;;;;;;0.03;54.12;101571.50;4993844;28;19926;-77
2022/03/04 11:49:48;;;;;;;;;;;;;;;0.08;54.42;101568.25;4993805;28;19989;-77
2022/03/04 11:52:19;;;;;;;;;;;;;;;0.10;54.30;101567.03;4971470;28;19950;-77
2022/03/04 11:54:45;;;;;;;;;;;;;;;0.13;54.05;101569.34;4974546;28;20401;-78
2022/03/04 11:57:14;;;;;;;;;;;;;;;0.14;54.00;101575.56;4974706;28;20020;-75
2022/03/04 11:59:40;;;;;;;;;;;;;;;0.11;53.42;101578.66;5008010;28;20028;-75
2022/03/04 12:02:05;;;;;;;;;;;;;;;0.07;53.27;101580.06;5007171;28;20404;-77
2022/03/04 12:04:34;;;;;;;;;;;;;;;0.01;52.71;101570.88;4993894;28;20461;-76
2022/03/04 12:07:06;;;;;;;;;;;;;;;0.03;54.01;101571.50;4980957;28;19925;-77
2022/03/04 12:09:32;;;;;;;;;;;;;;;0.09;53.19;101578.00;4972979;28;19980;-76
2022/03/04 12:12:11;;;;;;;;;;;;;;;0.07;53.67;101575.50;4988473;28;19957;-77
2022/03/04 12:14:41;;;;;;;;;;;;;;;0.11;53.41;101582.19;5007684;28;19963;-77
2022/03/04 12:17:07;;;;;;;;;;;;;;;0.17;53.61;101586.81;5007993;28;20388;-77
2022/03/04 12:19:36;;;;;;;;;;;;;;;0.16;53.58;101585.13;5008176;28;19926;-77
2022/03/04 12:22:01;;;;;;;;;;;;;;;0.03;51.98;101587.69;4992486;28;20281;-77
2022/03/04 12:24:27;;;;;;;;;;;;;;;-0.03;52.35;101578.47;4992465;28;19933;-76
2022/03/04 12:26:54;;;;;;;;;;;;;;;-0.01;52.12;101589.06;4989708;28;20329;-76
2022/03/04 12:29:21;;;;;;;;;;;;;;;-0.02;52.82;101596.34;4975692;28;19953;-76
2022/03/04 12:31:48;;;;;;;;;;;;;;;-0.01;52.10;101597.16;4975222;28;19933;-77
2022/03/04 12:34:17;;;;;;;;;;;;;;;0.01;52.72;101597.84;4989896;28;19932;-78
2022/03/04 12:36:43;;;;;;;;;;;;;;;0.08;53.00;101596.06;4990134;28;20020;-77